createdAt,value
2023-07-05T00:00:28.345Z,9.32
2023-07-05T00:02:54.990Z,14.63
2023-07-05T00:05:21.864Z,11.52
2023-07-05T00:07:48.683Z,10.60
2023-07-05T00:10:16.002Z,10.63
2023-07-05T00:12:42.634Z,8.90
2023-07-05T00:15:09.698Z,10.07
2023-07-05T00:17:36.852Z,9.85
2023-07-05T00:20:05.849Z,10.57
2023-07-05T00:22:32.433Z,9.48
2023-07-05T00:24:59.057Z,7.28
2023-07-05T00:27:26.262Z,8.20
2023-07-05T00:29:54.403Z,12.35
2023-07-05T00:32:21.754Z,11.10
2023-07-05T00:34:48.490Z,9.63
2023-07-05T00:37:15.327Z,9.43
2023-07-05T00:39:41.775Z,11.70
2023-07-05T00:42:08.220Z,9.65
2023-07-05T00:44:34.692Z,8.63
2023-07-05T00:47:25.233Z,7.07
2023-07-05T00:49:51.795Z,8.38
2023-07-05T00:52:19.163Z,8.52
2023-07-05T00:54:52.534Z,12.80
2023-07-05T00:57:28.195Z,15.37
2023-07-05T01:00:07.572Z,10.40
2023-07-05T01:02:35.348Z,10.00
2023-07-05T01:05:02.321Z,8.98
2023-07-05T01:07:28.857Z,9.90
2023-07-05T01:09:56.945Z,9.07
2023-07-05T01:12:36.455Z,7.18
2023-07-05T01:15:17.165Z,7.32
2023-07-05T01:17:52.622Z,8.10
2023-07-05T01:20:31.422Z,9.02
2023-07-05T01:23:20.294Z,9.00
2023-07-05T01:26:27.976Z,8.98
2023-07-05T01:29:16.405Z,8.50
2023-07-05T01:32:17.758Z,9.73
2023-07-05T01:34:51.518Z,6.65
2023-07-05T01:37:29.634Z,7.77
2023-07-05T01:39:56.171Z,6.35
2023-07-05T01:42:27.768Z,8.75
2023-07-05T01:44:54.510Z,6.18
2023-07-05T01:47:33.260Z,13.82
2023-07-05T01:50:17.306Z,7.43
2023-07-05T01:52:54.867Z,15.25
2023-07-05T01:55:45.653Z,7.85
2023-07-05T01:58:18.158Z,8.27
2023-07-05T02:00:48.100Z,6.90
2023-07-05T02:03:19.256Z,7.03
2023-07-05T02:05:47.693Z,4.68
2023-07-05T02:08:14.585Z,5.50
2023-07-05T02:10:42.106Z,5.25
2023-07-05T02:13:12.090Z,3.88
2023-07-05T02:15:41.877Z,9.03
2023-07-05T02:18:08.805Z,4.10
2023-07-05T02:20:37.194Z,5.75
2023-07-05T02:23:04.435Z,5.13
2023-07-05T02:25:32.452Z,4.00
2023-07-05T02:27:58.915Z,3.40
2023-07-05T02:30:27.896Z,4.20
2023-07-05T02:32:54.624Z,2.38
2023-07-05T02:35:21.102Z,2.75
2023-07-05T02:37:47.500Z,5.32
2023-07-05T02:40:14.024Z,7.30
2023-07-05T02:42:40.430Z,5.13
2023-07-05T02:45:07.467Z,4.22
2023-07-05T02:47:33.929Z,3.85
2023-07-05T02:50:00.406Z,5.97
2023-07-05T02:52:26.850Z,3.57
2023-07-05T02:54:53.234Z,4.13
2023-07-05T02:57:19.653Z,2.33
2023-07-05T02:59:46.162Z,6.03
2023-07-05T03:02:12.614Z,7.97
2023-07-05T03:04:39.154Z,4.40
2023-07-05T03:07:05.798Z,6.97
2023-07-05T03:09:32.534Z,6.65
2023-07-05T03:11:58.989Z,5.28
2023-07-05T03:14:25.490Z,3.83
2023-07-05T03:16:52.231Z,4.70
2023-07-05T03:19:18.764Z,3.88
2023-07-05T03:21:45.353Z,4.30
2023-07-05T03:24:11.817Z,7.53
2023-07-05T03:26:38.270Z,6.20
2023-07-05T03:29:05.528Z,6.10
2023-07-05T03:31:32.482Z,7.57
2023-07-05T03:33:58.995Z,5.28
2023-07-05T03:36:25.556Z,7.97
2023-07-05T03:38:52.744Z,4.97
2023-07-05T03:41:25.420Z,6.07
2023-07-05T03:43:58.596Z,6.95
2023-07-05T03:46:25.750Z,6.22
2023-07-05T03:48:52.353Z,10.05
2023-07-05T03:51:21.250Z,5.80
2023-07-05T03:53:56.223Z,5.43
2023-07-05T03:56:23.941Z,4.55
2023-07-05T03:58:51.054Z,5.72
2023-07-05T04:01:20.734Z,6.72
2023-07-05T04:03:49.966Z,8.35
2023-07-05T04:06:17.917Z,7.80
2023-07-05T04:08:44.429Z,4.72
2023-07-05T04:11:11.294Z,8.25
2023-07-05T04:13:38.449Z,4.38
2023-07-05T04:16:17.020Z,6.72
2023-07-05T04:18:45.226Z,4.03
2023-07-05T04:21:13.206Z,3.78
2023-07-05T04:23:41.279Z,8.70
2023-07-05T04:26:13.743Z,6.03
2023-07-05T04:28:41.711Z,8.02
2023-07-05T04:31:11.952Z,6.57
2023-07-05T04:33:38.554Z,7.40
2023-07-05T04:36:10.956Z,5.50
2023-07-05T04:38:42.870Z,7.57
2023-07-05T04:41:10.304Z,7.53
2023-07-05T04:43:37.108Z,5.37
2023-07-05T04:46:03.618Z,4.82
2023-07-05T04:48:31.380Z,4.40
2023-07-05T04:51:20.042Z,6.18
2023-07-05T04:53:57.818Z,5.38
2023-07-05T04:56:24.279Z,6.93
2023-07-05T04:58:50.824Z,8.52
2023-07-05T05:01:19.052Z,6.65
2023-07-05T05:03:45.579Z,6.05
2023-07-05T05:06:12.257Z,5.40
2023-07-05T05:08:38.808Z,5.50
2023-07-05T05:11:06.103Z,7.10
2023-07-05T05:13:35.142Z,6.93
2023-07-05T05:16:02.316Z,4.63
2023-07-05T05:18:32.082Z,8.45
2023-07-05T05:20:59.423Z,6.10
2023-07-05T05:23:26.860Z,4.88
2023-07-05T05:25:54.216Z,8.68
2023-07-05T05:28:20.639Z,6.25
2023-07-05T05:30:47.196Z,6.07
2023-07-05T05:33:16.079Z,5.37
2023-07-05T05:35:50.176Z,6.63
2023-07-05T05:38:18.255Z,6.60
2023-07-05T05:40:45.010Z,5.05
2023-07-05T05:43:11.556Z,5.57
2023-07-05T05:45:37.982Z,5.50
2023-07-05T05:48:04.828Z,5.22
2023-07-05T05:50:32.185Z,5.40
2023-07-05T05:52:58.625Z,3.75
2023-07-05T05:55:25.373Z,5.30
2023-07-05T05:57:51.807Z,5.00
2023-07-05T06:00:18.568Z,4.82
2023-07-05T06:02:45.159Z,5.45
2023-07-05T06:05:12.293Z,4.75
2023-07-05T06:07:39.460Z,4.18
2023-07-05T06:10:06.619Z,3.83
2023-07-05T06:12:33.183Z,5.78
2023-07-05T06:14:59.923Z,3.53
2023-07-05T06:17:27.505Z,4.63
2023-07-05T06:19:53.935Z,5.45
2023-07-05T06:22:20.373Z,2.70
2023-07-05T06:24:46.773Z,3.67
2023-07-05T06:27:13.226Z,3.35
2023-07-05T06:29:39.698Z,3.00
2023-07-05T06:32:06.555Z,3.95
2023-07-05T06:34:32.997Z,3.37
2023-07-05T06:36:59.439Z,2.47
2023-07-05T06:39:25.990Z,2.03
2023-07-05T06:41:52.501Z,1.77
2023-07-05T06:44:18.943Z,2.47
2023-07-05T06:46:45.600Z,3.90
2023-07-05T06:49:12.042Z,3.38
2023-07-05T06:51:38.467Z,4.30
2023-07-05T06:54:04.914Z,5.13
2023-07-05T06:56:31.405Z,3.92
2023-07-05T06:58:57.805Z,5.00
2023-07-05T07:01:24.304Z,2.05
2023-07-05T07:03:50.851Z,4.57
2023-07-05T07:06:17.491Z,3.55
2023-07-05T07:08:43.966Z,3.83
2023-07-05T07:11:12.492Z,2.37
2023-07-05T07:13:39.456Z,2.03
2023-07-05T07:16:11.474Z,3.72
2023-07-05T07:18:39.114Z,5.25
2023-07-05T07:21:12.652Z,3.50
2023-07-05T07:23:40.425Z,4.37
2023-07-05T07:26:19.355Z,3.45
2023-07-05T07:28:47.731Z,5.38
2023-07-05T07:31:23.721Z,3.10
2023-07-05T07:33:50.459Z,2.40
2023-07-05T07:36:23.039Z,3.67
2023-07-05T07:38:50.302Z,4.43
2023-07-05T07:41:22.565Z,3.72
2023-07-05T07:43:53.993Z,7.55
2023-07-05T07:46:25.073Z,5.40
2023-07-05T07:48:54.035Z,4.27
2023-07-05T07:51:36.730Z,5.18
2023-07-05T07:54:07.113Z,4.22
2023-07-05T07:56:33.799Z,4.10
2023-07-05T07:59:01.541Z,6.53
2023-07-05T08:01:31.798Z,5.97
2023-07-05T08:04:00.517Z,5.30
2023-07-05T08:06:41.778Z,4.32
2023-07-05T08:09:21.384Z,6.50
2023-07-05T08:11:48.477Z,3.17
2023-07-05T08:14:18.243Z,7.93
2023-07-05T08:16:46.064Z,5.10
2023-07-05T08:19:12.521Z,4.90
2023-07-05T08:21:39.013Z,3.45
2023-07-05T08:24:24.032Z,5.38
2023-07-05T08:26:53.114Z,4.10
2023-07-05T08:29:19.971Z,5.65
2023-07-05T08:31:49.972Z,4.63
2023-07-05T08:34:16.698Z,5.13
2023-07-05T08:36:43.672Z,5.80
2023-07-05T08:39:13.092Z,5.43
2023-07-05T08:41:53.663Z,3.38
2023-07-05T08:44:38.999Z,4.07
2023-07-05T08:47:19.671Z,4.50
2023-07-05T08:49:50.882Z,4.45
2023-07-05T08:52:45.569Z,3.57
2023-07-05T08:55:17.314Z,5.35
2023-07-05T08:57:52.243Z,5.47
2023-07-05T09:00:25.980Z,5.70
2023-07-05T09:02:53.063Z,4.47
2023-07-05T09:05:33.531Z,2.70
2023-07-05T09:08:02.755Z,4.60
2023-07-05T09:10:42.562Z,4.07
2023-07-05T09:13:22.712Z,7.40
2023-07-05T09:16:11.285Z,6.75
2023-07-05T09:19:17.752Z,5.80
2023-07-05T09:21:51.855Z,5.70
2023-07-05T09:24:24.370Z,3.35
2023-07-05T09:26:55.029Z,6.57
2023-07-05T09:29:21.368Z,4.90
2023-07-05T09:31:49.923Z,3.60
2023-07-05T09:34:26.209Z,8.88
2023-07-05T09:36:52.659Z,3.60
2023-07-05T09:39:39.954Z,5.32
2023-07-05T09:42:15.348Z,5.80
2023-07-05T09:44:42.236Z,7.50
2023-07-05T09:47:08.892Z,7.80
2023-07-05T09:49:35.414Z,3.83
2023-07-05T09:52:02.499Z,9.25
2023-07-05T09:54:31.411Z,5.85
2023-07-05T09:57:07.433Z,7.63
2023-07-05T09:59:35.338Z,6.55
2023-07-05T10:02:11.307Z,7.30
2023-07-05T10:05:00.022Z,5.00
2023-07-05T10:07:33.508Z,5.85
2023-07-05T10:10:12.029Z,9.30
2023-07-05T10:12:41.615Z,4.78
2023-07-05T10:15:21.778Z,4.47
2023-07-05T10:17:50.095Z,4.85
2023-07-05T10:20:27.307Z,9.00
2023-07-05T10:23:04.094Z,8.77
2023-07-05T10:25:34.656Z,8.45
2023-07-05T10:28:04.228Z,9.63
2023-07-05T10:30:30.762Z,6.47
2023-07-05T10:33:21.016Z,6.95
2023-07-05T10:36:11.116Z,7.73
2023-07-05T10:38:40.651Z,10.07
2023-07-05T10:41:34.391Z,6.82
2023-07-05T10:44:08.037Z,8.38
2023-07-05T10:46:39.264Z,5.20
2023-07-05T10:49:12.398Z,6.67
2023-07-05T10:51:48.961Z,5.95
2023-07-05T10:54:22.641Z,7.07
2023-07-05T10:56:50.236Z,8.45
2023-07-05T10:59:44.735Z,6.82
2023-07-05T11:02:41.890Z,11.30
2023-07-05T11:05:34.598Z,8.95
2023-07-05T11:08:03.190Z,9.00
2023-07-05T11:10:43.096Z,8.45
2023-07-05T11:13:19.357Z,4.03
2023-07-05T11:15:47.506Z,7.80
2023-07-05T11:18:16.970Z,8.30
2023-07-05T11:20:44.965Z,9.77
2023-07-05T11:23:13.739Z,6.85
2023-07-05T11:25:55.844Z,5.25
2023-07-05T11:28:42.750Z,4.37
2023-07-05T11:31:11.405Z,5.78
2023-07-05T11:33:37.928Z,4.22
2023-07-05T11:36:25.914Z,5.35
2023-07-05T11:38:57.115Z,4.85
2023-07-05T11:41:29.370Z,3.60
2023-07-05T11:44:02.727Z,5.72
2023-07-05T11:46:44.327Z,5.70
2023-07-05T11:49:19.583Z,7.07
2023-07-05T11:51:46.657Z,8.18
2023-07-05T11:54:14.756Z,4.80
2023-07-05T11:56:43.261Z,5.90
2023-07-05T11:59:12.832Z,4.82
2023-07-05T12:01:40.726Z,7.18
2023-07-05T12:04:13.507Z,7.30
2023-07-05T12:06:46.035Z,3.83
2023-07-05T12:09:26.714Z,4.45
2023-07-05T12:11:57.195Z,5.35
2023-07-05T12:14:23.960Z,5.35
2023-07-05T12:16:51.146Z,3.70
2023-07-05T12:19:28.201Z,6.50
2023-07-05T12:21:59.446Z,6.38
2023-07-05T12:24:25.954Z,5.95
2023-07-05T12:26:52.589Z,5.07
2023-07-05T12:29:21.845Z,3.83
2023-07-05T12:31:48.599Z,3.93
2023-07-05T12:34:22.579Z,3.83
2023-07-05T12:36:49.028Z,4.72
2023-07-05T12:39:17.798Z,2.92
2023-07-05T12:41:44.860Z,4.47
2023-07-05T12:44:17.112Z,3.80
2023-07-05T12:46:46.899Z,4.45
2023-07-05T12:49:27.847Z,4.25
2023-07-05T12:51:56.162Z,5.00
2023-07-05T12:54:24.217Z,4.05
2023-07-05T12:56:54.696Z,4.60
2023-07-05T12:59:36.862Z,4.28
2023-07-05T13:02:14.816Z,6.43
2023-07-05T13:04:45.360Z,5.75
2023-07-05T13:07:24.116Z,6.55
2023-07-05T13:09:54.241Z,5.27
2023-07-05T13:12:23.653Z,4.57
2023-07-05T13:15:06.456Z,5.20
2023-07-05T13:17:36.830Z,5.03
2023-07-05T13:20:06.312Z,7.07
2023-07-05T13:22:39.061Z,6.93
2023-07-05T13:25:06.507Z,3.35
2023-07-05T13:27:36.909Z,4.40
2023-07-05T13:30:17.405Z,4.20
2023-07-05T13:32:48.171Z,6.28
2023-07-05T13:35:14.711Z,4.83
2023-07-05T13:37:41.231Z,4.20
2023-07-05T13:40:15.095Z,4.47
2023-07-05T13:42:42.223Z,4.28
2023-07-05T13:45:24.933Z,4.10
2023-07-05T13:47:52.757Z,4.33
2023-07-05T13:50:19.864Z,4.60
2023-07-05T13:52:48.928Z,3.55
2023-07-05T13:55:20.299Z,4.65
2023-07-05T13:58:03.346Z,4.43
2023-07-05T14:00:32.675Z,3.23
2023-07-05T14:03:01.040Z,3.90
2023-07-05T14:05:29.816Z,4.00
2023-07-05T14:08:03.455Z,6.05
2023-07-05T14:10:31.976Z,5.78
2023-07-05T14:12:59.968Z,4.23
2023-07-05T14:15:35.836Z,6.57
2023-07-05T14:18:03.065Z,6.40
2023-07-05T14:20:33.845Z,5.03
2023-07-05T14:23:01.688Z,5.22
2023-07-05T14:25:29.912Z,4.43
2023-07-05T14:27:58.235Z,5.93
2023-07-05T14:30:25.369Z,6.43
2023-07-05T14:32:51.830Z,4.88
2023-07-05T14:35:20.642Z,6.32
2023-07-05T14:37:49.006Z,6.77
2023-07-05T14:40:17.713Z,7.65
2023-07-05T14:42:44.797Z,5.43
2023-07-05T14:45:33.873Z,5.07
2023-07-05T14:48:02.188Z,5.68
2023-07-05T14:50:30.892Z,4.50
2023-07-05T14:52:59.244Z,4.28
2023-07-05T14:55:27.860Z,5.75
2023-07-05T14:57:56.021Z,8.63
2023-07-05T15:00:25.446Z,5.03
2023-07-05T15:03:22.996Z,4.90
2023-07-05T15:05:49.442Z,4.78
2023-07-05T15:08:15.897Z,4.82
2023-07-05T15:10:43.288Z,7.32
2023-07-05T15:13:11.870Z,7.28
2023-07-05T15:15:41.166Z,5.63
2023-07-05T15:18:07.782Z,5.13
2023-07-05T15:20:36.206Z,6.75
2023-07-05T15:23:03.427Z,7.22
2023-07-05T15:25:30.076Z,7.18
2023-07-05T15:27:57.734Z,4.47
2023-07-05T15:30:25.061Z,6.10
2023-07-05T15:32:51.692Z,5.13
2023-07-05T15:35:20.800Z,6.43
2023-07-05T15:37:47.686Z,8.05
2023-07-05T15:40:19.068Z,4.67
2023-07-05T15:42:53.494Z,4.95
2023-07-05T15:45:25.571Z,6.60
2023-07-05T15:47:57.065Z,5.25
2023-07-05T15:50:25.102Z,5.85
2023-07-05T15:52:51.982Z,6.83
2023-07-05T15:55:19.020Z,8.10
2023-07-05T15:57:46.040Z,5.47
2023-07-05T16:00:29.894Z,6.00
2023-07-05T16:03:01.096Z,7.82
2023-07-05T16:05:38.532Z,9.37
2023-07-05T16:08:07.191Z,8.05
2023-07-05T16:10:39.229Z,5.60
2023-07-05T16:13:05.857Z,6.20
2023-07-05T16:15:35.312Z,6.38
2023-07-05T16:18:07.044Z,3.70
2023-07-05T16:20:35.673Z,6.18
2023-07-05T16:23:02.650Z,10.48
2023-07-05T16:25:31.113Z,6.85
2023-07-05T16:27:57.562Z,4.68
2023-07-05T16:30:24.086Z,5.27
2023-07-05T16:32:50.561Z,4.20
2023-07-05T16:35:17.456Z,6.00
2023-07-05T16:37:44.001Z,4.65
2023-07-05T16:40:10.667Z,4.28
2023-07-05T16:42:39.202Z,3.40
2023-07-05T16:45:07.821Z,3.28
2023-07-05T16:47:34.370Z,3.00
2023-07-05T16:50:01.001Z,2.65
2023-07-05T16:52:27.820Z,2.83
2023-07-05T16:54:54.277Z,2.40
2023-07-05T16:57:20.716Z,2.53
2023-07-05T16:59:49.195Z,2.25
2023-07-05T17:02:16.246Z,2.35
2023-07-05T17:04:42.831Z,2.08
2023-07-05T17:07:09.253Z,2.43
2023-07-05T17:09:36.089Z,2.05
2023-07-05T17:12:02.662Z,4.20
2023-07-05T17:14:29.251Z,3.72
2023-07-05T17:16:55.694Z,3.15
2023-07-05T17:19:22.448Z,3.93
2023-07-05T17:21:48.982Z,3.05
2023-07-05T17:24:15.820Z,2.60
2023-07-05T17:26:42.277Z,2.90
2023-07-05T17:29:08.765Z,4.13
2023-07-05T17:31:35.213Z,2.77
2023-07-05T17:34:01.750Z,2.38
2023-07-05T17:36:28.295Z,3.42
2023-07-05T17:38:57.217Z,2.40
2023-07-05T17:41:25.804Z,4.15
2023-07-05T17:43:52.374Z,2.53
2023-07-05T17:46:24.925Z,2.47
2023-07-05T17:48:53.529Z,4.90
2023-07-05T17:51:22.240Z,4.03
2023-07-05T17:53:48.889Z,3.67
2023-07-05T17:56:18.436Z,5.23
2023-07-05T17:58:44.906Z,7.60
2023-07-05T18:01:13.793Z,4.75
2023-07-05T18:03:41.319Z,3.85
2023-07-05T18:06:10.050Z,4.18
2023-07-05T18:08:36.751Z,4.30
2023-07-05T18:11:05.024Z,5.25
2023-07-05T18:13:34.128Z,4.28
2023-07-05T18:16:03.630Z,4.00
2023-07-05T18:18:31.884Z,4.60
2023-07-05T18:20:59.545Z,3.43
2023-07-05T18:23:27.965Z,4.65
2023-07-05T18:25:55.906Z,4.70
2023-07-05T18:28:23.174Z,3.55
2023-07-05T18:30:51.572Z,3.85
2023-07-05T18:33:18.493Z,3.93
2023-07-05T18:35:47.129Z,4.15
2023-07-05T18:38:13.608Z,3.88
2023-07-05T18:40:40.045Z,6.32
2023-07-05T18:43:06.519Z,4.53
2023-07-05T18:45:33.054Z,2.97
2023-07-05T18:48:01.909Z,3.28
2023-07-05T18:50:31.841Z,4.60
2023-07-05T18:52:59.494Z,5.40
2023-07-05T18:55:25.974Z,14.63
2023-07-05T18:57:52.460Z,17.00
2023-07-05T19:00:19.095Z,11.27
2023-07-05T19:02:45.621Z,11.52
2023-07-05T19:05:13.618Z,6.78
2023-07-05T19:07:40.427Z,5.28
2023-07-05T19:10:07.388Z,5.77
2023-07-05T19:12:34.908Z,6.30
2023-07-05T19:15:01.932Z,5.85
2023-07-05T19:17:28.468Z,5.45
2023-07-05T19:19:55.094Z,6.45
2023-07-05T19:22:22.204Z,4.03
2023-07-05T19:24:48.681Z,4.95
2023-07-05T19:27:15.554Z,13.65
2023-07-05T19:29:42.941Z,7.53
2023-07-05T19:32:10.191Z,4.95
2023-07-05T19:34:36.915Z,5.57
2023-07-05T19:37:03.498Z,4.07
2023-07-05T19:39:29.915Z,4.85
2023-07-05T19:41:56.372Z,3.88
2023-07-05T19:44:23.176Z,3.63
2023-07-05T19:46:49.672Z,4.97
2023-07-05T19:49:16.184Z,4.60
2023-07-05T19:51:45.359Z,5.85
2023-07-05T19:54:11.848Z,7.80
2023-07-05T19:56:38.981Z,4.82
2023-07-05T19:59:05.404Z,7.20
2023-07-05T20:01:32.031Z,4.53
2023-07-05T20:03:59.184Z,3.22
2023-07-05T20:06:26.392Z,4.13
2023-07-05T20:08:53.652Z,4.75
2023-07-05T20:11:22.991Z,3.53
2023-07-05T20:13:49.790Z,3.88
2023-07-05T20:16:16.511Z,3.90
2023-07-05T20:18:43.452Z,3.70
2023-07-05T20:21:12.562Z,3.72
2023-07-05T20:23:43.413Z,4.70
2023-07-05T20:26:10.666Z,2.90
2023-07-05T20:28:37.591Z,4.72
2023-07-05T20:31:04.881Z,4.45
2023-07-05T20:33:33.462Z,5.63
2023-07-05T20:36:10.370Z,5.90
2023-07-05T20:38:37.254Z,3.20
2023-07-05T20:41:04.108Z,6.63
2023-07-05T20:43:30.761Z,2.97
2023-07-05T20:45:59.903Z,4.45
2023-07-05T20:48:27.077Z,5.33
2023-07-05T20:50:58.724Z,4.95
2023-07-05T20:53:25.704Z,4.75
2023-07-05T20:55:52.127Z,4.13
2023-07-05T20:58:18.628Z,3.72
2023-07-05T21:00:45.063Z,4.57
2023-07-05T21:03:17.940Z,5.95
2023-07-05T21:05:46.479Z,3.58
2023-07-05T21:08:12.882Z,7.15
2023-07-05T21:10:46.442Z,3.78
2023-07-05T21:13:17.976Z,4.63
2023-07-05T21:15:47.860Z,4.88
2023-07-05T21:18:14.745Z,4.43
2023-07-05T21:20:42.834Z,5.72
2023-07-05T21:23:09.706Z,3.65
2023-07-05T21:25:36.562Z,3.37
2023-07-05T21:28:03.453Z,4.47
2023-07-05T21:30:31.271Z,4.75
2023-07-05T21:32:59.186Z,6.25
2023-07-05T21:35:27.176Z,3.33
2023-07-05T21:37:57.195Z,4.53
2023-07-05T21:40:30.012Z,5.47
2023-07-05T21:42:56.711Z,4.30
2023-07-05T21:45:25.485Z,5.05
2023-07-05T21:47:52.207Z,4.28
2023-07-05T21:50:21.312Z,4.53
2023-07-05T21:52:48.994Z,4.35
2023-07-05T21:55:15.844Z,3.70
2023-07-05T21:57:42.292Z,3.95
2023-07-05T22:00:09.636Z,4.85
2023-07-05T22:02:36.457Z,3.67
2023-07-05T22:05:03.804Z,5.28
2023-07-05T22:07:30.968Z,3.40
2023-07-05T22:09:58.057Z,6.43
2023-07-05T22:12:27.397Z,7.32
2023-07-05T22:15:00.390Z,3.00
2023-07-05T22:17:27.412Z,5.03
2023-07-05T22:19:56.821Z,4.60
2023-07-05T22:22:23.526Z,3.58
2023-07-05T22:24:49.978Z,3.33
2023-07-05T22:27:16.531Z,5.87
2023-07-05T22:29:43.046Z,4.13
2023-07-05T22:32:10.099Z,3.25
2023-07-05T22:34:36.557Z,3.30
2023-07-05T22:37:03.281Z,3.25
2023-07-05T22:39:29.729Z,6.77
2023-07-05T22:41:56.197Z,6.25
2023-07-05T22:44:23.208Z,3.92
2023-07-05T22:46:49.727Z,3.65
2023-07-05T22:49:16.878Z,3.75
2023-07-05T22:51:43.298Z,4.30
2023-07-05T22:54:09.922Z,4.43
2023-07-05T22:56:36.352Z,2.92
2023-07-05T22:59:04.449Z,5.10
2023-07-05T23:01:30.917Z,3.90
2023-07-05T23:03:57.496Z,4.83
2023-07-05T23:06:23.939Z,3.55
2023-07-05T23:08:50.716Z,7.28
2023-07-05T23:11:17.210Z,4.07
2023-07-05T23:13:45.276Z,4.53
2023-07-05T23:16:17.975Z,3.00
2023-07-05T23:18:46.591Z,3.80
2023-07-05T23:21:15.000Z,5.60
2023-07-05T23:23:41.586Z,3.85
2023-07-05T23:26:14.288Z,5.10
2023-07-05T23:28:40.885Z,3.07
2023-07-05T23:31:12.688Z,4.63
2023-07-05T23:33:40.335Z,2.78
2023-07-05T23:36:07.033Z,3.45
2023-07-05T23:38:33.904Z,3.97
2023-07-05T23:41:04.200Z,3.57
2023-07-05T23:43:32.538Z,4.50
2023-07-05T23:46:03.014Z,3.45
2023-07-05T23:48:31.898Z,5.25
2023-07-05T23:50:58.991Z,4.15
2023-07-05T23:53:25.506Z,4.20
2023-07-05T23:55:55.017Z,3.50
2023-07-05T23:58:26.550Z,6.00
